Time;durP1;ratioP1;P1;durP2;ratioP2;P2;SDS_P1;SDS_P2;PMS_P1;PMS_P2;Temp;Humidity;BMP_temperature;BMP_pressure;BME280_temperature;BME280_humidity;BME280_pressure;Samples;Min_cycle;Max_cycle;Signal;HPM_P1;HPM_P2
2024/03/16 00:02:17;;;;;;;16.70;2.30;;;11.30;99.90;;;;;;5017272;28;20014;-78
2024/03/16 00:04:46;;;;;;;15.32;1.73;;;11.30;99.90;;;;;;5016708;28;20025;-78
2024/03/16 00:07:11;;;;;;;;;;;11.30;99.90;;;;;;5016831;28;20076;-79
2024/03/16 00:09:37;;;;;;;22.67;1.00;;;11.30;99.90;;;;;;5015999;28;19906;-78
2024/03/16 00:12:05;;;;;;;13.80;1.23;;;11.30;99.90;;;;;;5015470;28;20057;-78
2024/03/16 00:14:31;;;;;;;9.35;1.17;;;11.30;99.90;;;;;;5017184;28;20026;-79
2024/03/16 00:16:58;;;;;;;18.02;2.28;;;11.30;99.90;;;;;;5017578;28;20021;-79
2024/03/16 00:19:24;;;;;;;18.17;1.27;;;11.30;99.90;;;;;;5016053;28;20034;-78
2024/03/16 00:21:50;;;;;;;25.90;3.47;;;11.30;99.90;;;;;;5017435;28;20022;-79
2024/03/16 00:24:16;;;;;;;15.70;1.52;;;11.30;99.90;;;;;;5018550;28;20033;-78
2024/03/16 00:26:42;;;;;;;14.88;2.47;;;11.20;99.90;;;;;;5018076;28;20093;-78
2024/03/16 00:29:08;;;;;;;14.85;1.80;;;11.20;99.90;;;;;;5016973;28;20032;-79
2024/03/16 00:31:34;;;;;;;13.38;1.20;;;11.10;99.90;;;;;;5016744;28;20077;-78
2024/03/16 00:34:00;;;;;;;21.83;2.85;;;11.00;99.90;;;;;;5015515;28;20397;-78
2024/03/16 00:36:26;;;;;;;16.45;1.08;;;11.00;99.90;;;;;;5015430;28;20018;-78
2024/03/16 00:38:52;;;;;;;15.02;2.50;;;11.10;99.90;;;;;;5017210;28;20033;-78
2024/03/16 00:41:17;;;;;;;12.60;2.80;;;10.90;99.90;;;;;;5015746;28;20060;-78
2024/03/16 00:43:46;;;;;;;21.80;2.45;;;10.90;99.90;;;;;;5016612;28;20018;-78
2024/03/16 00:46:12;;;;;;;;;;;10.80;99.90;;;;;;5016564;28;20033;-78
2024/03/16 00:48:38;;;;;;;28.58;3.22;;;10.80;99.90;;;;;;5017693;28;19905;-78
2024/03/16 00:51:04;;;;;;;18.58;2.97;;;10.80;99.90;;;;;;5016910;28;20080;-78
2024/03/16 00:53:29;;;;;;;26.33;3.33;;;10.80;99.90;;;;;;5016919;28;20022;-78
2024/03/16 00:55:55;;;;;;;14.70;3.55;;;10.70;99.90;;;;;;5016420;28;20110;-78
2024/03/16 00:58:21;;;;;;;22.17;3.17;;;10.80;99.90;;;;;;5016972;28;20034;-78
2024/03/16 01:00:46;;;;;;;26.50;2.92;;;10.70;99.90;;;;;;5015295;28;20030;-79
2024/03/16 01:03:12;;;;;;;16.45;2.92;;;10.70;99.90;;;;;;5016041;28;20025;-78
2024/03/16 01:05:37;;;;;;;23.73;4.38;;;10.70;99.90;;;;;;5017071;28;20025;-78
2024/03/16 01:08:03;;;;;;;23.77;5.13;;;10.70;99.90;;;;;;5017065;28;20388;-78
2024/03/16 01:10:29;;;;;;;21.58;4.65;;;10.70;99.90;;;;;;5016932;28;20032;-78
2024/03/16 01:12:55;;;;;;;16.00;2.95;;;10.70;99.90;;;;;;5016842;28;20084;-78
2024/03/16 01:15:23;;;;;;;20.38;3.50;;;10.70;99.90;;;;;;5015754;28;20018;-78
2024/03/16 01:17:49;;;;;;;23.25;3.25;;;10.70;99.90;;;;;;5017478;28;20468;-78
2024/03/16 01:20:15;;;;;;;18.02;2.75;;;10.70;99.90;;;;;;5017157;28;20033;-78
2024/03/16 01:22:41;;;;;;;25.77;2.97;;;10.60;99.90;;;;;;5015639;28;20022;-78
2024/03/16 01:25:06;;;;;;;20.25;3.42;;;10.60;99.90;;;;;;5016530;28;20026;-78
2024/03/16 01:27:35;;;;;;;14.32;1.90;;;10.40;99.90;;;;;;5016029;28;20473;-79
2024/03/16 01:30:02;;;;;;;19.40;1.92;;;10.40;99.90;;;;;;5015667;28;20585;-79
2024/03/16 01:32:28;;;;;;;22.75;1.33;;;10.40;99.90;;;;;;5015848;28;20029;-78
2024/03/16 01:34:53;;;;;;;12.85;1.50;;;10.30;99.90;;;;;;5015493;28;20022;-78
2024/03/16 01:37:20;;;;;;;16.65;1.45;;;10.30;99.90;;;;;;5015746;28;20026;-78
2024/03/16 01:39:45;;;;;;;14.30;2.47;;;10.20;99.90;;;;;;5017485;28;20030;-78
2024/03/16 01:42:12;;;;;;;10.57;0.95;;;10.20;99.90;;;;;;5015557;28;20370;-79
2024/03/16 01:44:38;;;;;;;8.80;1.23;;;10.10;99.90;;;;;;5017211;28;20045;-78
2024/03/16 01:47:09;;;;;;;14.55;0.65;;;10.10;99.90;;;;;;5015454;28;20014;-78
2024/03/16 01:49:35;;;;;;;6.35;0.32;;;10.10;99.90;;;;;;5015089;28;20379;-78
2024/03/16 01:52:03;;;;;;;11.65;1.15;;;10.00;99.90;;;;;;5016090;28;20128;-79
2024/03/16 01:54:30;;;;;;;6.30;0.30;;;10.00;99.90;;;;;;5015605;28;20072;-78
2024/03/16 01:56:56;;;;;;;4.40;0.43;;;9.90;99.90;;;;;;5016406;28;20026;-78
2024/03/16 01:59:22;;;;;;;4.50;0.10;;;;;;;;;;5015870;28;20033;-78
2024/03/16 02:01:48;;;;;;;6.13;0.82;;;9.80;99.90;;;;;;5014367;28;20394;-79
2024/03/16 02:04:14;;;;;;;10.57;0.82;;;9.80;99.90;;;;;;5014213;28;20026;-78
2024/03/16 02:06:39;;;;;;;4.38;0.00;;;9.70;99.90;;;;;;5015198;28;20135;-78
2024/03/16 02:09:06;;;;;;;5.32;0.30;;;11.10;99.90;;;;;;5016063;28;20437;-78
2024/03/16 02:11:32;;;;;;;5.40;1.13;;;9.70;99.90;;;;;;5015257;28;20105;-78
2024/03/16 02:13:57;;;;;;;11.55;0.52;;;9.70;99.90;;;;;;5014531;28;20458;-78
2024/03/16 02:16:23;;;;;;;4.70;0.52;;;9.70;99.90;;;;;;5014869;28;20532;-78
2024/03/16 02:18:49;;;;;;;1.63;0.10;;;9.60;99.90;;;;;;5015237;28;20033;-78
2024/03/16 02:21:14;;;;;;;4.82;0.00;;;9.60;99.90;;;;;;5016404;28;20053;-78
2024/03/16 02:23:40;;;;;;;4.47;0.30;;;9.50;99.90;;;;;;5014486;28;20050;-78
2024/03/16 02:26:07;;;;;;;1.65;0.22;;;9.70;99.90;;;;;;5014303;28;20053;-78
2024/03/16 02:28:33;;;;;;;1.55;0.20;;;9.30;99.90;;;;;;5014095;28;20034;-78
2024/03/16 02:30:58;;;;;;;0.95;0.65;;;9.30;99.90;;;;;;5015005;28;20040;-78
2024/03/16 02:33:24;;;;;;;4.15;0.32;;;9.30;99.90;;;;;;5014564;28;20489;-78
2024/03/16 02:35:49;;;;;;;3.45;0.15;;;9.20;99.90;;;;;;5015751;28;20033;-78
2024/03/16 02:38:15;;;;;;;9.68;1.10;;;9.10;99.90;;;;;;5016149;28;20039;-78
2024/03/16 02:40:44;;;;;;;3.53;0.10;;;9.10;99.90;;;;;;5013955;28;20022;-79
2024/03/16 02:43:09;;;;;;;4.15;0.75;;;9.10;99.90;;;;;;5015286;28;20084;-78
2024/03/16 02:45:35;;;;;;;4.63;0.20;;;9.10;99.90;;;;;;5014242;28;20026;-78
2024/03/16 02:48:01;;;;;;;4.47;0.40;;;9.00;99.90;;;;;;5015060;28;20030;-78
2024/03/16 02:50:27;;;;;;;11.25;0.90;;;9.10;99.90;;;;;;5015151;28;20105;-78
2024/03/16 02:52:53;;;;;;;5.85;0.47;;;9.00;99.90;;;;;;5013447;28;20117;-78
2024/03/16 02:55:19;;;;;;;4.20;0.65;;;9.10;99.90;;;;;;5014415;28;20028;-78
2024/03/16 02:57:45;;;;;;;8.15;0.80;;;;;;;;;;5014446;28;20109;-78
2024/03/16 03:00:11;;;;;;;5.22;0.70;;;9.00;99.90;;;;;;5013824;28;20482;-78
2024/03/16 03:02:39;;;;;;;5.35;0.70;;;9.00;99.90;;;;;;5015561;28;20077;-79
2024/03/16 03:05:10;;;;;;;2.13;0.57;;;9.00;99.90;;;;;;5015886;28;20026;-78
2024/03/16 03:07:37;;;;;;;4.05;0.60;;;9.00;99.90;;;;;;5013972;28;20018;-78
2024/03/16 03:10:04;;;;;;;1.58;0.60;;;9.00;99.90;;;;;;5014927;28;20022;-78
2024/03/16 03:12:30;;;;;;;11.30;1.58;;;9.00;99.90;;;;;;5013510;28;20061;-78
2024/03/16 03:14:56;;;;;;;3.28;0.80;;;9.00;99.90;;;;;;5013315;28;20083;-78
2024/03/16 03:17:21;;;;;;;13.43;1.00;;;9.00;99.90;;;;;;5015502;28;20448;-78
2024/03/16 03:19:47;;;;;;;5.32;0.30;;;8.90;99.90;;;;;;5014324;28;20054;-78
2024/03/16 03:22:13;;;;;;;4.90;1.02;;;8.90;99.90;;;;;;5013561;28;20512;-78
2024/03/16 03:24:38;;;;;;;10.70;0.55;;;8.90;99.90;;;;;;5014534;28;20029;-78
2024/03/16 03:27:04;;;;;;;8.40;0.45;;;8.80;99.90;;;;;;5013477;28;20033;-78
2024/03/16 03:29:29;;;;;;;5.03;0.65;;;8.70;99.90;;;;;;5015101;28;20053;-78
2024/03/16 03:31:57;;;;;;;5.63;1.20;;;8.70;99.90;;;;;;5014540;28;20049;-78
2024/03/16 03:34:22;;;;;;;8.57;0.82;;;8.70;99.90;;;;;;5013860;28;20026;-78
2024/03/16 03:36:49;;;;;;;6.22;0.10;;;8.60;99.90;;;;;;5014627;28;20393;-78
2024/03/16 03:39:14;;;;;;;1.73;0.20;;;8.60;99.90;;;;;;5015689;28;20030;-78
2024/03/16 03:41:40;;;;;;;3.83;0.10;;;8.60;99.90;;;;;;5013865;28;20501;-79
2024/03/16 03:44:20;;;;;;;2.75;0.45;;;8.60;99.90;;;;;;5013593;28;20010;-78
2024/03/16 03:46:52;;;;;;;4.50;0.10;;;8.60;99.90;;;;;;5014721;28;20025;-78
2024/03/16 03:49:29;;;;;;;3.15;0.40;;;8.70;99.90;;;;;;5015356;28;20489;-79
2024/03/16 03:51:58;;;;;;;1.23;0.00;;;8.60;99.90;;;;;;5015550;28;20026;-78
2024/03/16 03:54:24;;;;;;;5.30;0.03;;;9.50;99.90;;;;;;5016986;28;20111;-78
2024/03/16 03:56:50;;;;;;;1.85;0.65;;;8.70;99.90;;;;;;5018531;28;20018;-78
2024/03/16 03:59:15;;;;;;;2.50;0.20;;;8.60;99.90;;;;;;5017116;28;20026;-78
2024/03/16 04:01:41;;;;;;;6.68;0.70;;;8.60;99.90;;;;;;5016300;28;20022;-78
2024/03/16 04:04:07;;;;;;;0.35;0.00;;;8.60;99.90;;;;;;5017077;28;20558;-78
2024/03/16 04:06:32;;;;;;;8.57;0.52;;;8.60;99.90;;;;;;5017869;28;20014;-78
2024/03/16 04:08:58;;;;;;;2.60;0.22;;;8.60;99.90;;;;;;5017840;28;20030;-79
2024/03/16 04:11:24;;;;;;;6.45;0.35;;;8.60;99.90;;;;;;5015468;28;20030;-78
2024/03/16 04:13:50;;;;;;;3.50;0.32;;;7.90;99.90;;;;;;5016909;28;20088;-77
2024/03/16 04:16:15;;;;;;;2.95;0.00;;;8.50;99.90;;;;;;5015777;28;20026;-78
2024/03/16 04:18:41;;;;;;;2.13;0.00;;;8.50;99.90;;;;;;5017067;28;20112;-78
2024/03/16 04:21:07;;;;;;;1.05;0.00;;;8.50;99.90;;;;;;5017004;28;20029;-77
2024/03/16 04:23:33;;;;;;;1.60;0.10;;;8.50;99.90;;;;;;5017436;28;20018;-78
2024/03/16 04:25:59;;;;;;;4.30;0.30;;;8.50;99.90;;;;;;5015665;28;20022;-78
2024/03/16 04:28:25;;;;;;;3.88;0.63;;;8.50;99.90;;;;;;5015888;28;20025;-78
2024/03/16 04:30:51;;;;;;;2.72;0.00;;;8.50;99.90;;;;;;5016697;28;20040;-78
2024/03/16 04:33:17;;;;;;;2.15;0.10;;;8.50;99.90;;;;;;5016791;28;20026;-78
2024/03/16 04:35:45;;;;;;;3.78;0.00;;;8.40;99.90;;;;;;5016359;28;20038;-77
2024/03/16 04:38:11;;;;;;;4.53;0.73;;;8.30;99.90;;;;;;5017340;28;20038;-77
2024/03/16 04:40:36;;;;;;;8.23;0.50;;;8.20;99.90;;;;;;5016317;28;20030;-78
2024/03/16 04:43:02;;;;;;;8.38;0.20;;;8.20;99.90;;;;;;5016029;28;20022;-78
2024/03/16 04:45:28;;;;;;;1.40;0.00;;;8.20;99.90;;;;;;5017307;28;20026;-78
2024/03/16 04:47:54;;;;;;;7.20;0.57;;;8.10;99.90;;;;;;5015842;28;20054;-78
2024/03/16 04:50:19;;;;;;;2.60;0.32;;;8.10;99.90;;;;;;5015414;28;20029;-78
2024/03/16 04:52:45;;;;;;;8.20;0.20;;;8.10;99.90;;;;;;5016740;28;20172;-78
2024/03/16 04:55:10;;;;;;;3.25;0.30;;;8.20;99.90;;;;;;5016550;28;20030;-78
2024/03/16 04:57:36;;;;;;;7.28;0.22;;;8.10;99.90;;;;;;5016137;28;20374;-77
2024/03/16 05:00:02;;;;;;;6.88;0.00;;;8.10;99.90;;;;;;5016862;28;20437;-78
2024/03/16 05:02:30;;;;;;;5.10;0.00;;;8.20;99.90;;;;;;5015375;28;20018;-78
2024/03/16 05:04:56;;;;;;;4.53;0.10;;;8.10;99.90;;;;;;5015580;28;20100;-79
2024/03/16 05:07:21;;;;;;;4.05;0.20;;;8.50;99.90;;;;;;5016090;28;20510;-77
2024/03/16 05:09:47;;;;;;;4.32;0.00;;;8.20;99.90;;;;;;5016519;28;20417;-78
2024/03/16 05:12:13;;;;;;;1.25;0.10;;;8.30;99.90;;;;;;5015045;28;20048;-77
2024/03/16 05:14:39;;;;;;;2.38;0.10;;;8.20;99.90;;;;;;5015027;28;20125;-77
2024/03/16 05:17:04;;;;;;;2.15;0.10;;;8.30;99.90;;;;;;5015941;28;20058;-77
2024/03/16 05:19:30;;;;;;;4.72;0.63;;;8.30;99.90;;;;;;5015466;28;20421;-76
2024/03/16 05:21:55;;;;;;;0.15;0.00;;;8.20;99.90;;;;;;5014976;28;20030;-77
2024/03/16 05:24:21;;;;;;;0.90;0.00;;;8.20;99.90;;;;;;5016691;28;20033;-77
2024/03/16 05:26:47;;;;;;;4.15;0.00;;;8.00;99.90;;;;;;5014693;28;20022;-77
2024/03/16 05:29:14;;;;;;;2.40;0.17;;;7.80;99.90;;;;;;5014374;28;20021;-78
2024/03/16 05:31:54;;;;;;;0.55;0.00;;;7.80;99.90;;;;;;5013829;28;20117;-78
2024/03/16 05:34:21;;;;;;;2.28;0.25;;;7.70;99.90;;;;;;5015400;28;20481;-78
2024/03/16 05:36:47;;;;;;;1.58;0.00;;;7.60;99.90;;;;;;5014617;28;20120;-76
2024/03/16 05:39:14;;;;;;;2.45;0.05;;;7.60;99.90;;;;;;5015197;28;20065;-78
2024/03/16 05:41:40;;;;;;;3.15;0.00;;;7.50;99.90;;;;;;5013548;28;20029;-78
2024/03/16 05:44:06;;;;;;;1.50;0.00;;;7.50;99.90;;;;;;5014550;28;20109;-78
2024/03/16 05:46:32;;;;;;;3.15;0.52;;;;;;;;;;5013954;28;20029;-78
2024/03/16 05:48:57;;;;;;;4.40;0.47;;;7.60;99.90;;;;;;5015545;28;20033;-78
2024/03/16 05:51:24;;;;;;;3.45;0.03;;;7.60;99.90;;;;;;5014138;28;20022;-78
2024/03/16 05:53:51;;;;;;;5.55;0.00;;;7.60;99.90;;;;;;5013548;28;20030;-78
2024/03/16 05:56:17;;;;;;;4.38;0.25;;;7.60;99.90;;;;;;5015234;28;20072;-78
2024/03/16 05:58:42;;;;;;;6.22;0.20;;;7.60;99.90;;;;;;5013729;28;20034;-78
2024/03/16 06:01:09;;;;;;;6.75;0.22;;;7.60;99.90;;;;;;5014668;28;20049;-79
2024/03/16 06:03:35;;;;;;;1.75;0.13;;;7.70;99.90;;;;;;5014626;28;20424;-78
2024/03/16 06:06:01;;;;;;;4.47;0.28;;;7.70;99.90;;;;;;5015331;28;20032;-78
2024/03/16 06:08:26;;;;;;;5.50;0.20;;;7.60;99.90;;;;;;5014977;28;20482;-79
2024/03/16 06:10:52;;;;;;;5.50;0.65;;;7.60;99.90;;;;;;5015071;28;20022;-79
2024/03/16 06:13:18;;;;;;;4.57;0.00;;;7.60;99.90;;;;;;5014560;28;20030;-78
2024/03/16 06:15:44;;;;;;;5.55;0.10;;;7.60;99.90;;;;;;5014656;28;20026;-78
2024/03/16 06:18:09;;;;;;;5.45;0.32;;;7.60;99.90;;;;;;5013243;28;20393;-78
2024/03/16 06:20:35;;;;;;;12.82;1.23;;;7.60;99.90;;;;;;5014635;28;20033;-78
2024/03/16 06:23:01;;;;;;;8.93;1.10;;;7.60;99.90;;;;;;5013311;28;20021;-79
2024/03/16 06:25:29;;;;;;;1.23;0.00;;;7.60;99.90;;;;;;5013545;28;20032;-78
2024/03/16 06:28:05;;;;;;;7.63;0.63;;;7.70;99.90;;;;;;5013620;28;20022;-78
2024/03/16 06:30:30;;;;;;;9.23;0.43;;;7.60;99.90;;;;;;5013256;28;20112;-78
2024/03/16 06:33:20;;;;;;;4.85;0.15;;;7.60;99.90;;;;;;5013487;28;20484;-78
2024/03/16 06:35:47;;;;;;;5.32;0.30;;;7.60;99.90;;;;;;5013513;28;20030;-78
2024/03/16 06:38:13;;;;;;;3.67;0.43;;;7.60;99.90;;;;;;5014452;28;20033;-78
2024/03/16 06:40:39;;;;;;;5.03;0.38;;;7.70;99.90;;;;;;5012758;28;20030;-77
2024/03/16 06:43:05;;;;;;;3.10;0.00;;;;;;;;;;5014906;28;20033;-79
2024/03/16 06:45:31;;;;;;;2.90;0.03;;;7.60;99.90;;;;;;5013101;28;20026;-78
2024/03/16 06:47:57;;;;;;;1.80;0.00;;;7.70;99.90;;;;;;5014885;28;20448;-78
2024/03/16 06:50:22;;;;;;;4.13;0.00;;;7.70;99.90;;;;;;5015004;28;20026;-76
2024/03/16 06:52:48;;;;;;;5.57;0.65;;;7.80;99.90;;;;;;5014245;28;20026;-78
2024/03/16 06:55:17;;;;;;;7.95;0.15;;;8.90;99.90;;;;;;5013927;28;20104;-77
2024/03/16 06:57:43;;;;;;;;;;;7.80;99.90;;;;;;5012798;28;20473;-77
2024/03/16 07:00:09;;;;;;;7.20;0.65;;;7.90;99.90;;;;;;5012207;28;20008;-77
2024/03/16 07:02:35;;;;;;;4.60;0.10;;;7.90;99.90;;;;;;5012253;28;20028;-77
2024/03/16 07:05:01;;;;;;;3.25;0.10;;;7.90;99.90;;;;;;5012536;28;20485;-77
2024/03/16 07:07:27;;;;;;;5.75;0.00;;;8.00;99.90;;;;;;5013759;28;20461;-77
2024/03/16 07:09:52;;;;;;;8.02;0.10;;;8.10;99.90;;;;;;5013610;28;20057;-77
2024/03/16 07:12:18;;;;;;;2.92;0.08;;;8.10;99.90;;;;;;5013503;28;20088;-74
2024/03/16 07:14:43;;;;;;;2.30;0.10;;;8.20;99.90;;;;;;5013873;28;20121;-75
2024/03/16 07:17:09;;;;;;;6.15;0.00;;;8.30;99.90;;;;;;5012477;28;20026;-75
2024/03/16 07:19:34;;;;;;;5.88;0.00;;;8.40;99.90;;;;;;5012002;28;20045;-77
2024/03/16 07:22:00;;;;;;;4.55;0.00;;;8.40;99.90;;;;;;5013474;28;20061;-74
2024/03/16 07:24:26;;;;;;;6.75;0.90;;;8.50;99.90;;;;;;5012138;28;20029;-76
2024/03/16 07:26:52;;;;;;;2.55;0.28;;;8.50;99.90;;;;;;5012196;28;20367;-75
2024/03/16 07:29:17;;;;;;;5.22;0.00;;;8.60;99.90;;;;;;5017102;28;20021;-75
2024/03/16 07:31:43;;;;;;;3.08;0.20;;;8.60;99.90;;;;;;5015972;28;20033;-75
2024/03/16 07:34:09;;;;;;;7.78;0.55;;;8.60;99.90;;;;;;5015766;28;20112;-75
2024/03/16 07:36:34;;;;;;;11.80;0.88;;;8.70;99.90;;;;;;5015671;28;20026;-75
2024/03/16 07:39:00;;;;;;;2.05;0.10;;;8.70;99.90;;;;;;5015777;28;20485;-75
2024/03/16 07:41:26;;;;;;;7.65;0.63;;;8.80;99.90;;;;;;5015599;28;20084;-75
2024/03/16 07:43:51;;;;;;;2.97;0.20;;;8.80;99.90;;;;;;5015619;28;20057;-75
2024/03/16 07:46:19;;;;;;;1.08;0.00;;;8.80;99.90;;;;;;5016947;28;20022;-75
2024/03/16 07:48:45;;;;;;;6.05;0.20;;;8.80;99.90;;;;;;5015447;28;20100;-76
2024/03/16 07:51:13;;;;;;;3.88;0.30;;;8.90;99.90;;;;;;5016568;28;20485;-75
2024/03/16 07:53:38;;;;;;;1.73;0.20;;;9.00;99.90;;;;;;5015444;28;20026;-75
2024/03/16 07:56:04;;;;;;;2.20;0.03;;;9.00;99.90;;;;;;5016499;28;20298;-75
2024/03/16 07:58:30;;;;;;;2.88;0.13;;;9.00;99.90;;;;;;5016374;28;20018;-78
2024/03/16 08:00:56;;;;;;;6.03;0.13;;;9.10;99.90;;;;;;5019432;28;20029;-77
2024/03/16 08:03:21;;;;;;;4.53;0.73;;;9.10;99.90;;;;;;5017976;28;20057;-75
2024/03/16 08:05:47;;;;;;;3.50;0.10;;;9.10;99.90;;;;;;5017065;28;20026;-75
2024/03/16 08:08:13;;;;;;;2.95;0.00;;;9.20;99.90;;;;;;5015058;28;20108;-75
2024/03/16 08:10:38;;;;;;;3.88;0.13;;;9.20;99.90;;;;;;5018013;28;20025;-74
2024/03/16 08:13:04;;;;;;;6.30;0.00;;;9.20;99.90;;;;;;5016601;28;20112;-76
2024/03/16 08:15:29;;;;;;;4.68;0.20;;;9.20;99.90;;;;;;5015384;28;20026;-76
2024/03/16 08:17:57;;;;;;;1.65;0.10;;;9.20;99.90;;;;;;5016798;28;20030;-74
2024/03/16 08:20:23;;;;;;;2.45;0.00;;;9.20;99.90;;;;;;5014871;28;20042;-74
2024/03/16 08:22:53;;;;;;;2.90;0.32;;;9.10;99.90;;;;;;5016117;28;20098;-74
2024/03/16 08:25:19;;;;;;;4.38;0.43;;;9.10;99.90;;;;;;5016392;28;20018;-75
2024/03/16 08:27:45;;;;;;;2.35;0.00;;;9.10;99.90;;;;;;5015330;28;20030;-74
2024/03/16 08:30:11;;;;;;;9.40;0.08;;;9.00;99.90;;;;;;5014774;28;20095;-76
2024/03/16 08:32:36;;;;;;;4.85;1.02;;;9.00;99.90;;;;;;5016092;28;20109;-74
2024/03/16 08:35:03;;;;;;;2.20;0.00;;;9.00;99.90;;;;;;5015193;28;20385;-74
2024/03/16 08:37:29;;;;;;;3.45;0.22;;;9.00;99.90;;;;;;5014629;28;20493;-74
2024/03/16 08:39:55;;;;;;;3.03;0.20;;;9.10;99.90;;;;;;5014468;28;20068;-74
2024/03/16 08:42:20;;;;;;;5.82;0.40;;;9.10;99.90;;;;;;5015908;28;20022;-74
2024/03/16 08:44:46;;;;;;;3.25;0.10;;;9.10;99.90;;;;;;5016150;28;20033;-74
2024/03/16 08:47:14;;;;;;;4.80;0.30;;;9.70;99.90;;;;;;5014742;28;20109;-74
2024/03/16 08:49:40;;;;;;;3.30;0.15;;;9.30;99.90;;;;;;5014797;28;20018;-74
2024/03/16 08:52:06;;;;;;;2.83;0.00;;;9.30;99.90;;;;;;5015685;28;20059;-74
2024/03/16 08:54:32;;;;;;;1.02;0.28;;;9.30;99.90;;;;;;5014360;28;20481;-74
2024/03/16 08:57:03;;;;;;;6.03;0.90;;;9.50;99.90;;;;;;5015518;28;20014;-74
2024/03/16 08:59:30;;;;;;;5.10;0.17;;;9.60;99.90;;;;;;5015637;28;20481;-75
2024/03/16 09:01:56;;;;;;;3.17;0.00;;;9.50;99.90;;;;;;5014094;28;20108;-76
2024/03/16 09:04:21;;;;;;;5.57;0.20;;;9.60;99.90;;;;;;5015216;28;20054;-76
2024/03/16 09:06:47;;;;;;;3.58;0.10;;;9.60;99.90;;;;;;5015575;28;20049;-76
2024/03/16 09:09:15;;;;;;;1.67;0.60;;;9.60;99.90;;;;;;5015323;28;20512;-74
2024/03/16 09:11:40;;;;;;;3.23;0.50;;;9.50;99.90;;;;;;5015023;28;20076;-74
2024/03/16 09:14:06;;;;;;;2.10;0.00;;;10.30;99.90;;;;;;5014074;28;20276;-74
2024/03/16 09:16:36;;;;;;;1.75;0.00;;;9.50;99.90;;;;;;5015259;28;20026;-74
2024/03/16 09:19:03;;;;;;;1.95;0.00;;;9.40;99.90;;;;;;5013782;28;20029;-74
2024/03/16 09:21:29;;;;;;;3.92;0.17;;;9.40;99.90;;;;;;5013618;28;20040;-74
2024/03/16 09:23:55;;;;;;;1.65;0.28;;;9.40;99.90;;;;;;5014941;28;20512;-74
2024/03/16 09:26:21;;;;;;;6.75;0.08;;;;;;;;;;5014876;28;20018;-74
2024/03/16 09:28:47;;;;;;;7.95;0.15;;;9.30;99.90;;;;;;5013565;28;20033;-76
2024/03/16 09:31:12;;;;;;;6.38;0.20;;;9.30;99.90;;;;;;5014937;28;20414;-76
2024/03/16 09:33:38;;;;;;;3.90;0.00;;;9.30;99.90;;;;;;5013601;28;20029;-74
2024/03/16 09:36:06;;;;;;;1.67;0.00;;;9.30;99.90;;;;;;5013578;28;20018;-74
2024/03/16 09:38:32;;;;;;;8.48;0.38;;;9.30;99.90;;;;;;5013464;28;20026;-74
2024/03/16 09:40:58;;;;;;;2.38;0.00;;;9.40;99.90;;;;;;5013230;28;20037;-74
2024/03/16 09:43:24;;;;;;;3.95;0.00;;;9.50;99.90;;;;;;5013705;28;20041;-74
2024/03/16 09:45:50;;;;;;;3.72;0.15;;;9.50;99.90;;;;;;5013459;28;20088;-74
2024/03/16 09:48:16;;;;;;;1.15;0.20;;;9.60;99.90;;;;;;5013325;28;20022;-74
2024/03/16 09:50:47;;;;;;;4.53;0.00;;;9.60;99.90;;;;;;5012764;28;20030;-74
2024/03/16 09:53:40;;;;;;;16.77;0.52;;;9.70;99.90;;;;;;5015015;28;20378;-74
2024/03/16 09:56:11;;;;;;;5.18;0.00;;;9.80;99.90;;;;;;5010832;28;20405;-74
2024/03/16 09:58:37;;;;;;;0.90;0.00;;;9.80;99.90;;;;;;5014464;28;20028;-74
2024/03/16 10:01:04;;;;;;;5.18;0.25;;;9.90;99.90;;;;;;5014275;28;20100;-74
2024/03/16 10:03:34;;;;;;;5.55;0.10;;;9.90;99.90;;;;;;5014316;28;20018;-74
2024/03/16 10:06:08;;;;;;;3.72;1.00;;;10.00;99.90;;;;;;5012839;28;20080;-74
2024/03/16 10:08:38;;;;;;;3.55;0.00;;;10.10;99.90;;;;;;5012838;28;20029;-74
2024/03/16 10:11:16;;;;;;;2.80;0.00;;;10.10;99.90;;;;;;5015311;28;20034;-75
2024/03/16 10:13:59;;;;;;;5.18;0.00;;;10.10;99.90;;;;;;5014171;28;20470;-74
2024/03/16 10:16:25;;;;;;;1.92;0.00;;;10.10;99.90;;;;;;5012735;28;20033;-74
2024/03/16 10:18:53;;;;;;;2.83;0.20;;;10.00;99.90;;;;;;5014132;28;20481;-77
2024/03/16 10:21:19;;;;;;;2.80;0.20;;;9.90;99.90;;;;;;5012857;28;20075;-76
2024/03/16 10:23:45;;;;;;;3.83;0.00;;;9.80;99.90;;;;;;5013019;28;20108;-76
2024/03/16 10:26:13;;;;;;;6.63;0.35;;;10.00;99.90;;;;;;5013147;28;20041;-77
2024/03/16 10:28:42;;;;;;;3.15;0.20;;;9.90;99.90;;;;;;5015007;28;20022;-76
2024/03/16 10:31:09;;;;;;;;;;;10.00;99.90;;;;;;5014325;28;20022;-73
2024/03/16 10:33:38;;;;;;;5.72;0.43;;;10.10;99.90;;;;;;5013805;28;19913;-75
2024/03/16 10:36:05;;;;;;;6.10;0.30;;;10.20;99.90;;;;;;5013998;28;20033;-75
2024/03/16 10:38:31;;;;;;;9.18;0.47;;;10.30;99.90;;;;;;5014159;28;20026;-76
2024/03/16 10:41:05;;;;;;;2.17;0.10;;;10.20;99.90;;;;;;5013665;28;20037;-76
2024/03/16 10:43:33;;;;;;;12.50;0.80;;;10.30;99.90;;;;;;5013891;28;20026;-76
2024/03/16 10:45:59;;;;;;;9.25;0.65;;;10.30;99.90;;;;;;5013769;28;20478;-76
2024/03/16 10:48:25;;;;;;;5.53;1.55;;;10.30;99.90;;;;;;5012687;28;20033;-76
2024/03/16 10:50:56;;;;;;;2.20;0.30;;;10.30;99.90;;;;;;5013829;28;20026;-76
2024/03/16 10:53:24;;;;;;;2.50;0.00;;;10.40;99.90;;;;;;5014633;28;20022;-75
2024/03/16 10:55:50;;;;;;;3.15;0.00;;;10.40;99.90;;;;;;5012684;28;20026;-76
2024/03/16 10:58:25;;;;;;;4.38;0.00;;;10.40;99.90;;;;;;5012946;28;20128;-76
2024/03/16 11:00:55;;;;;;;1.70;0.20;;;10.50;99.90;;;;;;5013804;28;20037;-75
2024/03/16 11:06:00;;;;;;;4.47;0.10;;;10.50;99.90;;;;;;5017884;28;20030;-75
2024/03/16 11:08:36;;;;;;;4.25;0.00;;;10.50;99.90;;;;;;5017762;28;20026;-75
2024/03/16 11:11:02;;;;;;;2.08;0.00;;;10.50;99.90;;;;;;5016260;28;20053;-76
2024/03/16 11:13:28;;;;;;;2.22;0.32;;;10.50;99.90;;;;;;5016099;28;20085;-75
2024/03/16 11:15:54;;;;;;;2.75;0.10;;;10.50;99.90;;;;;;5017310;28;20034;-76
2024/03/16 11:18:19;;;;;;;3.53;0.00;;;10.50;99.90;;;;;;5017335;28;20049;-76
2024/03/16 11:20:55;;;;;;;2.05;0.00;;;10.70;99.90;;;;;;5015892;28;20053;-75
2024/03/16 11:23:28;;;;;;;2.08;0.20;;;10.70;99.90;;;;;;5017880;28;20068;-76
2024/03/16 11:25:55;;;;;;;4.18;0.82;;;10.80;99.90;;;;;;5015839;28;20034;-76
2024/03/16 11:28:22;;;;;;;3.60;0.00;;;10.90;99.90;;;;;;5017107;28;20025;-75
2024/03/16 11:30:50;;;;;;;5.18;0.47;;;11.00;99.90;;;;;;5016864;28;20022;-76
2024/03/16 11:33:21;;;;;;;5.00;0.10;;;11.00;99.90;;;;;;5015793;28;20022;-76
2024/03/16 11:35:47;;;;;;;1.52;0.03;;;11.00;99.90;;;;;;5015730;28;20022;-76
2024/03/16 11:38:21;;;;;;;5.38;0.00;;;11.20;99.90;;;;;;5017589;28;20026;-73
2024/03/16 11:40:48;;;;;;;1.38;0.10;;;11.30;99.90;;;;;;5016977;28;20080;-73
2024/03/16 11:43:14;;;;;;;4.88;0.13;;;11.40;99.90;;;;;;5016857;28;20018;-73
2024/03/16 11:45:46;;;;;;;5.13;0.00;;;11.70;99.90;;;;;;5016762;28;20049;-75
2024/03/16 11:48:12;;;;;;;3.40;0.10;;;11.90;99.90;;;;;;5016928;28;20029;-73
2024/03/16 11:50:39;;;;;;;2.38;0.00;;;11.90;99.90;;;;;;5016969;28;20105;-75
2024/03/16 11:53:08;;;;;;;1.58;0.38;;;12.00;99.90;;;;;;5016671;28;20019;-75
2024/03/16 11:55:34;;;;;;;0.98;0.13;;;12.00;99.90;;;;;;5015246;28;20030;-75
2024/03/16 11:58:00;;;;;;;7.53;0.10;;;12.00;99.90;;;;;;5015576;28;20025;-75
2024/03/16 12:00:29;;;;;;;4.88;0.30;;;11.90;99.90;;;;;;5016458;28;20104;-75
2024/03/16 12:02:57;;;;;;;3.72;0.05;;;11.90;99.90;;;;;;5015230;28;20113;-73
2024/03/16 12:05:23;;;;;;;5.23;0.00;;;12.20;99.90;;;;;;5017112;28;20080;-73
2024/03/16 12:07:49;;;;;;;1.42;0.00;;;12.20;99.90;;;;;;5016401;28;20033;-73
2024/03/16 12:10:15;;;;;;;2.75;0.20;;;;;;;;;;5015021;28;20030;-74
2024/03/16 12:12:41;;;;;;;1.75;0.38;;;12.40;99.90;;;;;;5016324;28;20409;-76
2024/03/16 12:15:22;;;;;;;1.30;0.10;;;12.30;99.90;;;;;;5016082;28;20022;-75
2024/03/16 12:17:51;;;;;;;5.25;0.40;;;12.20;99.90;;;;;;5016259;28;20028;-74
2024/03/16 12:20:17;;;;;;;1.73;0.10;;;12.00;99.90;;;;;;5014766;28;20503;-75
2024/03/16 12:22:49;;;;;;;2.05;0.00;;;12.00;99.90;;;;;;5016186;28;20017;-73
2024/03/16 12:25:16;;;;;;;0.50;0.00;;;12.00;99.90;;;;;;5014765;28;20029;-73
2024/03/16 12:27:45;;;;;;;5.60;0.13;;;11.90;99.90;;;;;;5016061;28;20022;-75
2024/03/16 12:30:13;;;;;;;6.95;0.10;;;11.90;99.90;;;;;;5016717;28;20069;-73
2024/03/16 12:32:39;;;;;;;4.45;0.75;;;12.30;99.90;;;;;;5014704;28;20034;-73
2024/03/16 12:35:06;;;;;;;5.63;0.32;;;12.40;99.90;;;;;;5014588;28;20127;-75
2024/03/16 12:37:32;;;;;;;3.22;0.00;;;12.70;99.90;;;;;;5014724;28;20083;-73
2024/03/16 12:39:58;;;;;;;7.53;0.00;;;12.90;99.90;;;;;;5014394;28;20033;-73
2024/03/16 12:42:24;;;;;;;5.30;0.10;;;12.70;99.90;;;;;;5014571;28;20026;-76
2024/03/16 12:44:50;;;;;;;2.58;0.00;;;12.70;99.90;;;;;;5014409;28;20370;-75
2024/03/16 12:47:16;;;;;;;3.22;0.00;;;12.50;99.90;;;;;;5015623;28;20025;-75
2024/03/16 12:49:44;;;;;;;7.22;0.55;;;12.00;99.90;;;;;;5015543;28;20065;-75
2024/03/16 12:52:11;;;;;;;9.02;0.00;;;12.00;99.90;;;;;;5015578;28;20021;-75
2024/03/16 12:54:37;;;;;;;5.93;0.10;;;11.70;99.90;;;;;;5016133;28;20405;-75
2024/03/16 12:57:02;;;;;;;2.28;0.08;;;11.60;99.90;;;;;;5014234;28;20014;-75